Aviation Digital Data Service (ADDS)

Output produced by METARs form (0649 UTC 17 January 2017)
found at http://aviationweather.gov/adds/metars/
 
KJAX 170550Z 1706/1806 00000KT 1/2SM FG BKN002 
     TEMPO 1706/1710 1/4SM FG VV002 
     FM171400 20003KT 2SM BR SCT002 SCT250 
     FM171500 20007KT P6SM SCT015 SCT250 
     FM172100 15006KT P6SM SCT040 BKN250 
     FM180100 18004KT P6SM SCT050 BKN250